createdAt,value
2018-06-28T00:01:00.060Z,100700.70
2018-06-28T00:03:27.010Z,100705.98
2018-06-28T00:05:53.978Z,100704.52
2018-06-28T00:08:20.948Z,100706.95
2018-06-28T00:10:47.875Z,100710.52
2018-06-28T00:13:15.870Z,100713.61
2018-06-28T00:15:42.844Z,100705.41
2018-06-28T00:18:09.802Z,100702.24
2018-06-28T00:20:36.726Z,100704.23
2018-06-28T00:23:03.654Z,100698.97
2018-06-28T00:25:30.614Z,100696.12
2018-06-28T00:27:57.509Z,100701.37
2018-06-28T00:30:24.469Z,100699.28
2018-06-28T00:32:53.323Z,100700.04
2018-06-28T00:35:20.235Z,100697.48
2018-06-28T00:37:47.258Z,100698.48
2018-06-28T00:40:15.683Z,100694.11
2018-06-28T00:42:43.691Z,100698.02
2018-06-28T00:45:11.255Z,100692.30
2018-06-28T00:47:38.170Z,100689.56
2018-06-28T00:50:05.230Z,100687.98
2018-06-28T00:52:32.193Z,100687.95
2018-06-28T00:54:59.162Z,100687.02
2018-06-28T00:57:26.094Z,100684.56
2018-06-28T00:59:53.083Z,100683.27
2018-06-28T01:02:20.031Z,100684.61
2018-06-28T01:04:47.011Z,100678.91
2018-06-28T01:07:13.902Z,100683.70
2018-06-28T01:09:41.714Z,100681.46
2018-06-28T01:12:08.670Z,100681.13
2018-06-28T01:14:35.631Z,100678.55
2018-06-28T01:17:02.599Z,100676.89
2018-06-28T01:19:29.534Z,100676.23
2018-06-28T01:21:56.499Z,100677.05
2018-06-28T01:24:23.465Z,100684.58
2018-06-28T01:26:50.423Z,100681.13
2018-06-28T01:29:17.391Z,100681.13
2018-06-28T01:31:44.347Z,100676.40
2018-06-28T01:34:11.302Z,100676.84
2018-06-28T01:36:38.238Z,100672.55
2018-06-28T01:39:08.119Z,100667.59
2018-06-28T01:41:47.318Z,100673.52
2018-06-28T01:44:15.197Z,100673.61
2018-06-28T01:46:42.255Z,100674.39
2018-06-28T01:49:09.110Z,100680.27
2018-06-28T01:51:36.687Z,100669.75
2018-06-28T01:54:03.654Z,100670.03
2018-06-28T01:56:30.595Z,100674.09
2018-06-28T01:58:59.222Z,100679.73
2018-06-28T02:01:26.155Z,100685.45
2018-06-28T02:03:56.999Z,100690.87
2018-06-28T02:06:25.758Z,100684.41
2018-06-28T02:08:52.680Z,100688.16
2018-06-28T02:11:20.638Z,100680.08
2018-06-28T02:13:49.268Z,100677.44
2018-06-28T02:16:17.251Z,100679.03
2018-06-28T02:18:44.696Z,100679.34
2018-06-28T02:21:12.674Z,100673.69
2018-06-28T02:23:41.225Z,100679.16
2018-06-28T02:26:08.738Z,100681.88
2018-06-28T02:28:36.214Z,100673.34
2018-06-28T02:31:06.185Z,100680.44
2018-06-28T02:33:33.048Z,100676.83
2018-06-28T02:35:59.934Z,100676.19
2018-06-28T02:38:28.750Z,100676.83
2018-06-28T02:40:57.263Z,100684.28
2018-06-28T02:43:24.213Z,100685.31
2018-06-28T02:45:53.729Z,100689.98
2018-06-28T02:48:21.722Z,100694.76
2018-06-28T02:50:48.707Z,100694.94
2018-06-28T02:53:15.626Z,100692.91
2018-06-28T02:55:42.535Z,100693.42
2018-06-28T02:58:10.442Z,100686.50
2018-06-28T03:00:38.236Z,100686.98
2018-06-28T03:03:05.179Z,100689.78
2018-06-28T03:05:32.719Z,100693.02
2018-06-28T03:07:59.606Z,100686.44
2018-06-28T03:10:26.580Z,100694.45
2018-06-28T03:12:55.275Z,100693.94
2018-06-28T03:15:22.234Z,100684.59
2018-06-28T03:17:49.166Z,100689.27
2018-06-28T03:20:16.746Z,100686.41
2018-06-28T03:22:44.750Z,100686.16
2018-06-28T03:25:11.698Z,100685.67
2018-06-28T03:27:39.250Z,100687.02
2018-06-28T03:30:06.401Z,100685.59
2018-06-28T03:32:36.353Z,100686.68
2018-06-28T03:35:08.330Z,100690.42
2018-06-28T03:37:35.826Z,100684.44
2018-06-28T03:40:04.740Z,100688.98
2018-06-28T03:42:32.281Z,100691.73
2018-06-28T03:44:59.227Z,100679.87
2018-06-28T03:47:26.803Z,100672.49
2018-06-28T03:49:53.762Z,100670.50
2018-06-28T03:52:21.256Z,100672.55
2018-06-28T03:54:49.291Z,100678.50
2018-06-28T03:57:17.827Z,100677.87
2018-06-28T03:59:45.830Z,100682.38
2018-06-28T04:02:12.734Z,100677.71
2018-06-28T04:04:40.319Z,100673.91
2018-06-28T04:07:11.339Z,100676.86
2018-06-28T04:09:38.244Z,100678.22
2018-06-28T04:12:05.226Z,100676.17
2018-06-28T04:14:32.786Z,100677.90
2018-06-28T04:17:00.333Z,100678.80
2018-06-28T04:19:44.712Z,100685.09
2018-06-28T04:22:21.272Z,100680.58
2018-06-28T04:24:48.250Z,100681.76
2018-06-28T04:27:16.842Z,100681.31
2018-06-28T04:29:43.799Z,100678.75
2018-06-28T04:32:12.807Z,100670.64
2018-06-28T04:34:40.278Z,100679.07
2018-06-28T04:37:07.238Z,100677.01
2018-06-28T04:39:35.828Z,100666.63
2018-06-28T04:42:02.774Z,100677.64
2018-06-28T04:44:29.703Z,100680.03
2018-06-28T04:46:57.321Z,100681.05
2018-06-28T04:49:25.305Z,100680.91
2018-06-28T04:51:52.914Z,100682.52
2018-06-28T04:54:19.811Z,100679.93
2018-06-28T04:56:46.761Z,100683.56
2018-06-28T04:59:14.776Z,100684.00
2018-06-28T05:01:46.111Z,100684.01
2018-06-28T05:04:13.779Z,100680.44
2018-06-28T05:06:41.791Z,100677.41
2018-06-28T05:09:10.222Z,100686.73
2018-06-28T05:11:37.875Z,100679.38
2018-06-28T05:14:07.274Z,100674.09
2018-06-28T05:16:34.218Z,100686.71
2018-06-28T05:19:01.184Z,100685.02
2018-06-28T05:21:28.134Z,100686.09
2018-06-28T05:23:56.114Z,100689.31
2018-06-28T05:26:23.467Z,100681.28
2018-06-28T05:28:51.334Z,100690.53
2018-06-28T05:31:18.830Z,100682.94
2018-06-28T05:33:45.796Z,100687.33
2018-06-28T05:36:12.730Z,100684.42
2018-06-28T05:38:40.278Z,100682.86
2018-06-28T05:41:07.291Z,100681.85
2018-06-28T05:43:34.278Z,100693.61
2018-06-28T05:46:01.884Z,100682.94
2018-06-28T05:48:28.719Z,100682.41
2018-06-28T05:50:56.451Z,100689.11
2018-06-28T05:53:23.462Z,100687.52
2018-06-28T05:55:50.311Z,100681.36
2018-06-28T05:58:18.791Z,100684.39
2018-06-28T06:00:45.699Z,100685.63
2018-06-28T06:03:13.710Z,100685.70
2018-06-28T06:05:42.499Z,100677.17
2018-06-28T06:08:09.394Z,100682.83
2018-06-28T06:10:36.258Z,100681.44
2018-06-28T06:13:03.286Z,100690.69
2018-06-28T06:15:30.851Z,100690.14
2018-06-28T06:17:58.360Z,100690.82
2018-06-28T06:20:26.931Z,100696.25
2018-06-28T06:22:54.351Z,100688.01
2018-06-28T06:25:21.326Z,100693.23
2018-06-28T06:27:48.242Z,100692.30
2018-06-28T06:30:15.886Z,100688.78
2018-06-28T06:32:43.419Z,100692.36
2018-06-28T06:35:10.916Z,100689.77
2018-06-28T06:37:37.867Z,100699.56
2018-06-28T06:40:05.848Z,100693.50
2018-06-28T06:42:37.390Z,100694.00
2018-06-28T06:45:06.070Z,100689.09
2018-06-28T06:47:33.866Z,100695.30
2018-06-28T06:50:01.430Z,100686.61
2018-06-28T06:52:28.886Z,100691.62
2018-06-28T06:54:55.860Z,100689.52
2018-06-28T06:57:24.451Z,100690.25
2018-06-28T06:59:52.445Z,100688.72
2018-06-28T07:02:19.410Z,100678.41
2018-06-28T07:04:46.323Z,100677.53
2018-06-28T07:07:14.827Z,100680.75
2018-06-28T07:09:41.806Z,100677.62
2018-06-28T07:12:09.362Z,100674.66
2018-06-28T07:14:36.326Z,100679.24
2018-06-28T07:17:04.339Z,100672.91
2018-06-28T07:19:32.303Z,100672.15
2018-06-28T07:21:59.278Z,100669.53
2018-06-28T07:24:26.927Z,100668.47
2018-06-28T07:26:53.839Z,100664.79
2018-06-28T07:29:20.799Z,100669.28
2018-06-28T07:31:48.411Z,100669.61
2018-06-28T07:34:15.472Z,100672.20
2018-06-28T07:36:42.398Z,100664.44
2018-06-28T07:39:11.271Z,100663.67
2018-06-28T07:41:38.335Z,100658.70
2018-06-28T07:44:06.070Z,100658.16
2018-06-28T07:46:34.043Z,100654.89
2018-06-28T07:49:01.741Z,100650.16
2018-06-28T07:51:28.678Z,100650.45
2018-06-28T07:53:55.622Z,100642.66
2018-06-28T07:56:23.410Z,100647.83
2018-06-28T07:58:50.334Z,100643.48
2018-06-28T08:01:18.967Z,100636.14
2018-06-28T08:03:45.996Z,100645.38
2018-06-28T08:06:12.987Z,100636.88
2018-06-28T08:08:39.973Z,100634.07
2018-06-28T08:11:06.752Z,100630.16
2018-06-28T08:13:33.618Z,100623.90
2018-06-28T08:16:00.618Z,100624.93
2018-06-28T08:18:27.575Z,100627.04
2018-06-28T08:20:54.554Z,100622.25
2018-06-28T08:23:24.559Z,100623.61
2018-06-28T08:25:51.507Z,100625.00
2018-06-28T08:28:21.831Z,100626.53
2018-06-28T08:30:48.681Z,100626.40
2018-06-28T08:33:16.446Z,100629.75
2018-06-28T08:35:43.492Z,100621.39
2018-06-28T08:38:11.012Z,100628.25
2018-06-28T08:40:38.990Z,100625.74
2018-06-28T08:43:06.186Z,100625.95
2018-06-28T08:45:33.115Z,100619.80
2018-06-28T08:48:00.991Z,100626.91
2018-06-28T08:50:27.954Z,100619.10
2018-06-28T08:52:56.468Z,100624.48
2018-06-28T08:55:23.442Z,100622.09
2018-06-28T08:57:50.417Z,100612.67
2018-06-28T09:00:17.311Z,100622.67
2018-06-28T09:02:44.293Z,100602.98
2018-06-28T09:05:11.986Z,100605.35
2018-06-28T09:07:38.898Z,100593.89
2018-06-28T09:10:06.486Z,100601.38
2018-06-28T09:12:33.402Z,100600.28
2018-06-28T09:15:01.007Z,100599.75
2018-06-28T09:17:28.587Z,100590.70
2018-06-28T09:19:55.541Z,100597.58
2018-06-28T09:22:22.482Z,100589.44
2018-06-28T09:24:49.422Z,100597.03
2018-06-28T09:27:16.398Z,100581.64
2018-06-28T09:29:43.351Z,100577.84
2018-06-28T09:32:10.318Z,100578.42
2018-06-28T09:34:37.257Z,100576.49
2018-06-28T09:37:04.398Z,100568.83
2018-06-28T09:39:31.363Z,100573.14
2018-06-28T09:41:58.350Z,100577.73
2018-06-28T09:44:25.313Z,100573.28
2018-06-28T09:46:52.258Z,100578.47
2018-06-28T09:49:19.229Z,100578.50
2018-06-28T09:51:46.175Z,100575.64
2018-06-28T09:54:13.944Z,100580.09
2018-06-28T09:56:40.922Z,100569.41
2018-06-28T09:59:07.838Z,100564.31
2018-06-28T10:01:34.834Z,100574.15
2018-06-28T10:04:01.790Z,100563.84
2018-06-28T10:06:28.738Z,100574.70
2018-06-28T10:08:55.708Z,100568.52
2018-06-28T10:11:23.227Z,100568.27
2018-06-28T10:13:50.123Z,100563.24
2018-06-28T10:16:17.131Z,100569.36
2018-06-28T10:18:44.046Z,100558.70
2018-06-28T10:21:11.001Z,100569.55
2018-06-28T10:23:38.970Z,100552.25
2018-06-28T10:26:05.942Z,100554.25
2018-06-28T10:28:32.866Z,100551.12
2018-06-28T10:30:59.858Z,100553.66
2018-06-28T10:33:26.822Z,100550.56
2018-06-28T10:35:53.769Z,100548.81
2018-06-28T10:38:20.731Z,100548.80
2018-06-28T10:40:47.699Z,100541.44
2018-06-28T10:43:14.686Z,100535.69
2018-06-28T10:45:41.610Z,100530.47
2018-06-28T10:48:08.550Z,100527.22
2018-06-28T10:50:35.513Z,100520.66
2018-06-28T10:53:02.359Z,100529.11
2018-06-28T10:55:29.225Z,100517.15
2018-06-28T10:57:56.191Z,100519.55
2018-06-28T11:00:23.147Z,100512.71
2018-06-28T11:02:50.110Z,100512.97
2018-06-28T11:05:17.014Z,100509.03
2018-06-28T11:07:43.906Z,100514.03
2018-06-28T11:10:10.870Z,100516.88
2018-06-28T11:12:38.858Z,100500.33
2018-06-28T11:15:05.802Z,100495.16
2018-06-28T11:17:32.760Z,100490.21
2018-06-28T11:20:00.637Z,100498.42
2018-06-28T11:22:27.602Z,100487.45
2018-06-28T11:24:55.646Z,100483.10
2018-06-28T11:27:22.534Z,100477.50
2018-06-28T11:29:49.582Z,100474.37
2018-06-28T11:32:16.541Z,100467.48
2018-06-28T11:34:44.010Z,100475.70
2018-06-28T11:37:11.015Z,100473.52
2018-06-28T11:39:37.963Z,100477.22
2018-06-28T11:42:04.894Z,100470.91
2018-06-28T11:44:31.948Z,100470.90
2018-06-28T11:46:59.122Z,100467.22
2018-06-28T11:49:26.054Z,100464.10
2018-06-28T11:51:53.479Z,100457.30
2018-06-28T11:54:20.415Z,100462.14
2018-06-28T11:56:47.382Z,100465.59
2018-06-28T11:59:14.282Z,100462.31
2018-06-28T12:01:41.278Z,100455.75
2018-06-28T12:04:09.055Z,100454.88
2018-06-28T12:06:36.062Z,100455.95
2018-06-28T12:09:06.392Z,100447.48
2018-06-28T12:11:33.293Z,100445.22
2018-06-28T12:14:00.254Z,100448.48
2018-06-28T12:16:27.276Z,100449.90
2018-06-28T12:18:54.352Z,100444.59
2018-06-28T12:21:22.045Z,100437.91
2018-06-28T12:23:49.010Z,100445.62
2018-06-28T12:26:15.970Z,100437.37
2018-06-28T12:31:12.446Z,100433.87
2018-06-28T12:33:39.414Z,100429.20
2018-06-28T12:36:06.366Z,100437.53
2018-06-28T12:38:33.365Z,100425.77
2018-06-28T12:41:00.286Z,100431.16
2018-06-28T12:43:29.167Z,100437.64
2018-06-28T12:45:56.955Z,100433.20
2018-06-28T12:48:24.938Z,100432.33
2018-06-28T12:50:52.625Z,100430.04
2018-06-28T12:53:19.542Z,100436.85
2018-06-28T12:56:14.466Z,100436.50
2018-06-28T12:58:42.485Z,100429.55
2018-06-28T13:01:09.435Z,100434.41
2018-06-28T13:03:36.413Z,100431.08
2018-06-28T13:06:03.633Z,100432.06
2018-06-28T13:08:30.590Z,100432.70
2018-06-28T13:10:57.590Z,100430.91
2018-06-28T13:13:25.148Z,100428.64
2018-06-28T13:15:52.598Z,100422.89
2018-06-28T13:18:20.478Z,100420.84
2018-06-28T13:20:49.871Z,100421.75
2018-06-28T13:23:17.126Z,100420.48
2018-06-28T13:25:44.630Z,100417.59
2018-06-28T13:28:13.324Z,100417.66
2018-06-28T13:30:39.956Z,100413.75
2018-06-28T13:33:06.945Z,100418.36
2018-06-28T13:35:33.959Z,100412.63
2018-06-28T13:38:02.174Z,100415.02
2018-06-28T13:40:29.276Z,100410.59
2018-06-28T13:42:57.158Z,100416.55
2018-06-28T13:45:25.211Z,100405.50
2018-06-28T13:47:54.149Z,100406.78
2018-06-28T13:50:21.074Z,100408.52
2018-06-28T13:52:48.246Z,100410.13
2018-06-28T13:55:17.647Z,100397.80
2018-06-28T13:57:44.718Z,100397.58
2018-06-28T14:00:11.580Z,100389.53
2018-06-28T14:02:38.482Z,100397.97
2018-06-28T14:05:06.569Z,100391.33
2018-06-28T14:07:34.241Z,100380.91
2018-06-28T14:10:02.240Z,100388.65
2018-06-28T14:12:29.326Z,100381.91
2018-06-28T14:14:56.331Z,100376.67
2018-06-28T14:17:24.353Z,100369.26
2018-06-28T14:19:51.464Z,100369.88
2018-06-28T14:22:18.404Z,100355.72
2018-06-28T14:24:45.302Z,100364.75
2018-06-28T14:27:12.266Z,100356.42
2018-06-28T14:29:39.248Z,100361.66
2018-06-28T14:32:06.238Z,100354.16
2018-06-28T14:34:33.240Z,100357.82
2018-06-28T14:37:00.210Z,100347.38
2018-06-28T14:39:27.152Z,100348.67
2018-06-28T14:41:54.166Z,100343.86
2018-06-28T14:44:21.134Z,100345.31
2018-06-28T14:46:48.113Z,100349.27
2018-06-28T14:49:15.098Z,100337.75
2018-06-28T14:51:42.178Z,100341.98
2018-06-28T14:54:09.107Z,100343.81
2018-06-28T14:56:36.170Z,100338.82
2018-06-28T14:59:03.122Z,100335.25
2018-06-28T15:01:30.079Z,100333.16
2018-06-28T15:03:58.062Z,100333.21
2018-06-28T15:06:25.096Z,100320.59
2018-06-28T15:08:52.074Z,100323.38
2018-06-28T15:11:19.114Z,100317.94
2018-06-28T15:13:46.631Z,100315.80
2018-06-28T15:16:13.619Z,100316.28
2018-06-28T15:18:40.623Z,100313.22
2018-06-28T15:21:07.555Z,100320.27
2018-06-28T15:23:34.485Z,100310.71
2018-06-28T15:26:02.480Z,100309.34
2018-06-28T15:28:29.483Z,100310.20
2018-06-28T15:30:56.703Z,100308.62
2018-06-28T15:33:24.807Z,100309.68
2018-06-28T15:35:51.573Z,100305.98
2018-06-28T15:38:18.589Z,100312.75
2018-06-28T15:40:46.540Z,100307.02
2018-06-28T15:43:13.490Z,100305.40
2018-06-28T15:45:40.492Z,100303.67
2018-06-28T15:48:07.395Z,100295.18
2018-06-28T15:50:34.454Z,100298.92
2018-06-28T15:53:01.427Z,100291.43
2018-06-28T15:55:30.418Z,100289.70
2018-06-28T15:57:59.220Z,100292.59
2018-06-28T16:00:26.770Z,100285.98
2018-06-28T16:02:53.806Z,100284.41
2018-06-28T16:05:20.695Z,100280.69
2018-06-28T16:07:47.666Z,100282.80
2018-06-28T16:10:14.616Z,100278.32
2018-06-28T16:12:41.611Z,100276.65
2018-06-28T16:15:08.522Z,100273.34
2018-06-28T16:17:38.854Z,100270.87
2018-06-28T16:20:06.766Z,100278.33
2018-06-28T16:22:33.762Z,100276.05
2018-06-28T16:25:01.207Z,100274.88
2018-06-28T16:27:28.762Z,100278.87
2018-06-28T16:29:57.790Z,100283.32
2018-06-28T16:32:24.726Z,100277.48
2018-06-28T16:34:52.182Z,100271.61
2018-06-28T16:37:19.114Z,100270.11
2018-06-28T16:39:46.090Z,100269.40
2018-06-28T16:42:13.046Z,100259.34
2018-06-28T16:44:42.781Z,100267.42
2018-06-28T16:47:09.702Z,100257.48
2018-06-28T16:49:36.687Z,100252.65
2018-06-28T16:52:03.640Z,100260.08
2018-06-28T16:54:31.629Z,100266.16
2018-06-28T16:57:01.579Z,100257.69
2018-06-28T16:59:31.487Z,100259.95
2018-06-28T17:01:58.370Z,100256.84
2018-06-28T17:04:25.336Z,100255.19
2018-06-28T17:06:52.251Z,100253.05
2018-06-28T17:09:19.170Z,100260.20
2018-06-28T17:11:46.074Z,100255.52
2018-06-28T17:14:13.080Z,100248.13
2018-06-28T17:16:39.981Z,100243.85
2018-06-28T17:19:07.910Z,100245.17
2018-06-28T17:21:35.010Z,100248.19
2018-06-28T17:24:01.954Z,100246.68
2018-06-28T17:26:28.927Z,100247.66
2018-06-28T17:28:58.874Z,100245.09
2018-06-28T17:31:25.786Z,100249.32
2018-06-28T17:33:52.894Z,100246.55
2018-06-28T17:36:19.838Z,100245.55
2018-06-28T17:38:46.799Z,100247.20
2018-06-28T17:41:13.758Z,100244.45
2018-06-28T17:43:40.698Z,100242.67
2018-06-28T17:46:07.670Z,100245.36
2018-06-28T17:48:34.610Z,100237.63
2018-06-28T17:51:01.649Z,100240.07
2018-06-28T17:53:28.505Z,100241.36
2018-06-28T17:55:55.512Z,100237.64
2018-06-28T17:58:22.462Z,100248.09
2018-06-28T18:00:49.440Z,100256.85
2018-06-28T18:03:16.361Z,100254.97
2018-06-28T18:05:47.895Z,100256.38
2018-06-28T18:08:15.829Z,100263.78
2018-06-28T18:10:46.823Z,100265.60
2018-06-28T18:13:17.849Z,100264.70
2018-06-28T18:15:45.887Z,100265.35
2018-06-28T18:18:14.959Z,100267.72
2018-06-28T18:20:43.895Z,100269.93
2018-06-28T18:23:17.007Z,100268.55
2018-06-28T18:25:44.008Z,100273.77
2018-06-28T18:28:13.814Z,100274.11
2018-06-28T18:30:45.281Z,100272.61
2018-06-28T18:33:25.837Z,100266.59
2018-06-28T18:35:54.854Z,100263.64
2018-06-28T18:38:23.946Z,100266.77
2018-06-28T18:40:52.755Z,100286.99
2018-06-28T18:43:25.848Z,100319.03
2018-06-28T18:45:52.819Z,100324.70
2018-06-28T18:48:22.738Z,100321.36
2018-06-28T18:50:53.194Z,100322.07
2018-06-28T18:53:26.285Z,100326.52
2018-06-28T18:56:00.290Z,100325.14
2018-06-28T18:58:27.813Z,100332.75
2018-06-28T19:00:54.731Z,100332.17
2018-06-28T19:03:21.702Z,100340.97
2018-06-28T19:05:58.322Z,100333.47
2018-06-28T19:08:28.323Z,100348.69
2018-06-28T19:11:08.678Z,100351.03
2018-06-28T19:13:43.200Z,100351.17
2018-06-28T19:16:15.900Z,100345.75
2018-06-28T19:18:42.934Z,100351.63
2018-06-28T19:21:15.657Z,100353.25
2018-06-28T19:23:47.351Z,100357.16
2018-06-28T19:26:14.902Z,100355.53
2018-06-28T19:28:42.870Z,100356.94
2018-06-28T19:31:15.958Z,100354.56
2018-06-28T19:33:46.053Z,100350.59
2018-06-28T19:36:18.639Z,100351.28
2018-06-28T19:38:52.142Z,100359.58
2018-06-28T19:41:25.982Z,100359.80
2018-06-28T19:43:59.078Z,100362.66
2018-06-28T19:46:28.842Z,100357.80
2018-06-28T19:48:56.332Z,100368.63
2018-06-28T19:51:32.123Z,100361.02
2018-06-28T19:54:02.130Z,100366.77
2018-06-28T19:56:30.107Z,100372.06
2018-06-28T19:59:03.274Z,100370.00
2018-06-28T20:01:38.003Z,100377.24
2018-06-28T20:04:11.845Z,100384.46
2018-06-28T20:06:40.039Z,100388.55
2018-06-28T20:09:08.246Z,100391.80
2018-06-28T20:11:35.154Z,100386.34
2018-06-28T20:14:08.867Z,100380.75
2018-06-28T20:16:45.634Z,100375.89
2018-06-28T20:19:19.158Z,100378.36
2018-06-28T20:21:46.065Z,100386.56
2018-06-28T20:24:13.010Z,100393.08
2018-06-28T20:26:48.602Z,100388.88
2018-06-28T20:29:21.262Z,100393.84
2018-06-28T20:31:53.907Z,100392.25
2018-06-28T20:34:21.325Z,100388.76
2018-06-28T20:36:54.166Z,100393.68
2018-06-28T20:39:24.170Z,100397.36
2018-06-28T20:41:52.834Z,100398.11
2018-06-28T20:44:22.371Z,100399.37
2018-06-28T20:46:49.330Z,100410.25
2018-06-28T20:49:16.313Z,100401.59
2018-06-28T20:51:44.873Z,100405.92
2018-06-28T20:54:12.908Z,100408.20
2018-06-28T20:56:40.342Z,100410.32
2018-06-28T20:59:13.227Z,100410.28
2018-06-28T21:01:43.139Z,100411.91
2018-06-28T21:04:13.396Z,100405.92
2018-06-28T21:06:43.305Z,100414.80
2018-06-28T21:09:11.338Z,100408.95
2018-06-28T21:11:44.390Z,100413.67
2018-06-28T21:14:12.386Z,100415.30
2018-06-28T21:16:39.344Z,100413.02
2018-06-28T21:19:06.270Z,100410.08
2018-06-28T21:21:39.286Z,100411.49
2018-06-28T21:24:06.246Z,100410.37
2018-06-28T21:26:33.214Z,100409.09
2018-06-28T21:29:00.175Z,100410.23
2018-06-28T21:31:27.163Z,100416.31
2018-06-28T21:33:54.094Z,100405.45
2018-06-28T21:36:21.042Z,100402.30
2018-06-28T21:38:47.994Z,100397.42
2018-06-28T21:41:14.922Z,100400.98
2018-06-28T21:43:42.962Z,100402.41
2018-06-28T21:46:09.926Z,100398.11
2018-06-28T21:48:36.834Z,100398.62
2018-06-28T21:51:07.099Z,100392.55
2018-06-28T21:53:40.246Z,100393.85
2018-06-28T21:56:14.203Z,100393.78
2018-06-28T21:58:41.158Z,100393.58
2018-06-28T22:01:09.147Z,100392.95
2018-06-28T22:06:25.007Z,100391.73
2018-06-28T22:08:55.515Z,100378.60
2018-06-28T22:11:22.464Z,100378.83
2018-06-28T22:13:53.489Z,100378.94
2018-06-28T22:16:20.378Z,100379.05
2018-06-28T22:18:47.350Z,100381.08
2018-06-28T22:21:14.899Z,100379.44
2018-06-28T22:23:41.878Z,100378.31
2018-06-28T22:26:09.058Z,100369.16
2018-06-28T22:28:41.866Z,100372.80
2018-06-28T22:31:12.779Z,100372.90
2018-06-28T22:33:41.466Z,100362.59
2018-06-28T22:36:09.978Z,100361.37
2018-06-28T22:38:37.941Z,100361.12
2018-06-28T22:41:05.360Z,100365.09
2018-06-28T22:43:32.288Z,100365.32
2018-06-28T22:46:04.557Z,100365.08
2018-06-28T22:48:33.423Z,100364.64
2018-06-28T22:51:03.490Z,100364.21
2018-06-28T22:53:36.382Z,100369.00
2018-06-28T22:56:03.350Z,100363.73
2018-06-28T22:58:30.274Z,100362.24
2018-06-28T23:00:57.323Z,100351.52
2018-06-28T23:03:24.938Z,100353.15
2018-06-28T23:08:33.699Z,100350.61
2018-06-28T23:11:03.622Z,100359.30
2018-06-28T23:13:34.689Z,100358.52
2018-06-28T23:16:02.462Z,100358.94
2018-06-28T23:18:35.367Z,100357.68
2018-06-28T23:21:07.327Z,100355.91
2018-06-28T23:23:37.254Z,100354.28
2018-06-28T23:26:07.182Z,100354.14
2018-06-28T23:28:34.127Z,100358.50
2018-06-28T23:31:08.270Z,100349.86
2018-06-28T23:33:41.361Z,100347.53
2018-06-28T23:36:12.535Z,100357.48
2018-06-28T23:38:41.423Z,100358.48
2018-06-28T23:41:15.363Z,100351.25
2018-06-28T23:43:49.890Z,100353.78
2018-06-28T23:46:19.822Z,100351.80
2018-06-28T23:48:52.818Z,100352.66
2018-06-28T23:51:22.734Z,100348.76
2018-06-28T23:53:52.674Z,100345.14
2018-06-28T23:56:19.663Z,100342.56
2018-06-28T23:58:47.508Z,100345.65
